Time;durP1;ratioP1;P1;durP2;ratioP2;P2;SDS_P1;SDS_P2;PMS_P1;PMS_P2;Temp;Humidity;BMP_temperature;BMP_pressure;BME280_temperature;BME280_humidity;BME280_pressure;Samples;Min_cycle;Max_cycle;Signal;HPM_P1;HPM_P2
2022/04/04 00:01:53;;;;;;;5.18;3.20;;;;;;;;;;5072960;28;20048;-60
2022/04/04 00:04:20;;;;;;;8.32;3.30;;;;;;;;;;5071842;28;20036;-61
2022/04/04 00:06:45;;;;;;;5.45;3.20;;;;;;;;;;5066573;28;20120;-60
2022/04/04 00:09:12;;;;;;;4.82;3.13;;;;;;;;;;5074142;28;20140;-61
2022/04/04 00:11:38;;;;;;;4.60;3.25;;;;;;;;;;5069083;28;20119;-60
2022/04/04 00:14:04;;;;;;;6.15;3.65;;;;;;;;;;5073881;28;20143;-61
2022/04/04 00:16:32;;;;;;;5.07;3.15;;;;;;;;;;5071570;28;20458;-60
2022/04/04 00:19:00;;;;;;;6.88;3.63;;;;;;;;;;5070896;28;20052;-60
2022/04/04 00:21:26;;;;;;;5.90;3.47;;;;;;;;;;5074805;28;20087;-60
2022/04/04 00:23:52;;;;;;;4.90;3.63;;;;;;;;;;5070304;28;20032;-60
2022/04/04 00:26:18;;;;;;;6.55;3.10;;;;;;;;;;5073713;28;20391;-60
2022/04/04 00:28:44;;;;;;;4.57;3.78;;;;;;;;;;5072715;28;20044;-60
2022/04/04 00:31:10;;;;;;;6.05;3.53;;;;;;;;;;5074484;28;20036;-60
2022/04/04 00:33:36;;;;;;;5.68;3.45;;;;;;;;;;5070177;28;20404;-60
2022/04/04 00:36:02;;;;;;;4.80;3.28;;;;;;;;;;5071593;28;20036;-61
2022/04/04 00:38:28;;;;;;;6.90;3.03;;;;;;;;;;5071636;28;20036;-60
2022/04/04 00:40:54;;;;;;;4.05;3.08;;;;;;;;;;5073563;28;20048;-60
2022/04/04 00:43:20;;;;;;;4.47;3.40;;;;;;;;;;5072701;28;20510;-60
2022/04/04 00:45:47;;;;;;;6.63;3.67;;;;;;;;;;5070620;28;20120;-61
2022/04/04 00:48:12;;;;;;;6.22;3.55;;;;;;;;;;5066648;28;20483;-60
2022/04/04 00:50:39;;;;;;;7.97;4.03;;;;;;;;;;5074872;28;20036;-60
2022/04/04 00:53:08;;;;;;;7.28;3.80;;;;;;;;;;5071581;28;20044;-60
2022/04/04 00:55:34;;;;;;;8.68;4.40;;;;;;;;;;5072114;28;20041;-61
2022/04/04 00:58:00;;;;;;;7.18;4.95;;;;;;;;;;5071987;28;20049;-60
2022/04/04 01:00:26;;;;;;;6.85;5.20;;;;;;;;;;5072498;28;20580;-60
2022/04/04 01:02:53;;;;;;;10.45;6.00;;;;;;;;;;5071322;28;20072;-61
2022/04/04 01:05:19;;;;;;;8.80;6.25;;;;;;;;;;5071484;28;20473;-60
2022/04/04 01:07:45;;;;;;;11.15;6.60;;;;;;;;;;5070947;28;20036;-61
2022/04/04 01:10:11;;;;;;;11.02;7.32;;;;;;;;;;5070163;28;20422;-60
2022/04/04 01:12:49;;;;;;;10.75;6.47;;;;;;;;;;5068157;28;20036;-60
2022/04/04 01:15:15;;;;;;;12.02;7.78;;;;;;;;;;5073565;28;20036;-61
2022/04/04 01:17:41;;;;;;;14.07;8.63;;;;;;;;;;5072220;28;20045;-60
2022/04/04 01:20:07;;;;;;;9.15;7.65;;;;;;;;;;5069848;28;20441;-60
2022/04/04 01:22:33;;;;;;;10.32;6.70;;;;;;;;;;5071761;28;20036;-61
2022/04/04 01:25:01;;;;;;;9.85;7.25;;;;;;;;;;5072944;28;20126;-60
2022/04/04 01:27:27;;;;;;;11.50;7.50;;;;;;;;;;5070544;28;20102;-61
2022/04/04 01:29:53;;;;;;;9.82;6.93;;;;;;;;;;5070568;28;20047;-61
2022/04/04 01:32:19;;;;;;;9.57;7.88;;;;;;;;;;5070279;28;20044;-61
2022/04/04 01:34:45;;;;;;;12.40;8.35;;;;;;;;;;5070752;28;20518;-60
2022/04/04 01:37:11;;;;;;;12.07;7.57;;;;;;;;;;5067668;28;20053;-60
2022/04/04 01:39:38;;;;;;;9.73;7.35;;;;;;;;;;5069330;28;20052;-61
2022/04/04 01:42:05;;;;;;;9.88;7.07;;;;;;;;;;5068181;28;20110;-60
2022/04/04 01:44:31;;;;;;;10.75;7.30;;;;;;;;;;5066098;28;20037;-60
2022/04/04 01:46:58;;;;;;;10.93;7.43;;;;;;;;;;5065437;28;20032;-61
2022/04/04 01:49:24;;;;;;;9.65;7.00;;;;;;;;;;5059651;28;20028;-60
2022/04/04 01:51:50;;;;;;;12.52;8.23;;;;;;;;;;5069234;28;20051;-60
2022/04/04 01:54:16;;;;;;;10.90;7.25;;;;;;;;;;5070981;28;20117;-60
2022/04/04 01:56:43;;;;;;;8.82;6.63;;;;;;;;;;5067306;28;20040;-61
2022/04/04 01:59:09;;;;;;;11.25;7.53;;;;;;;;;;5070179;28;20043;-61
2022/04/04 02:01:36;;;;;;;10.82;6.60;;;;;;;;;;5065701;28;20090;-60
2022/04/04 02:04:03;;;;;;;10.75;7.18;;;;;;;;;;5069914;28;20157;-60
2022/04/04 02:06:29;;;;;;;10.23;7.78;;;;;;;;;;5070075;28;20040;-61
2022/04/04 02:08:55;;;;;;;10.95;7.88;;;;;;;;;;5071369;28;20098;-60
2022/04/04 02:11:22;;;;;;;11.65;8.45;;;;;;;;;;5069878;28;20074;-60
2022/04/04 02:13:48;;;;;;;13.55;8.00;;;;;;;;;;5070577;28;20041;-61
2022/04/04 02:16:14;;;;;;;15.30;8.98;;;;;;;;;;5071612;28;20033;-61
2022/04/04 02:18:40;;;;;;;14.55;9.23;;;;;;;;;;5069321;28;20161;-60
2022/04/04 02:21:07;;;;;;;12.57;8.85;;;;;;;;;;5071096;28;20076;-60
2022/04/04 02:23:34;;;;;;;18.13;9.23;;;;;;;;;;5068162;28;20044;-60
2022/04/04 02:26:00;;;;;;;13.82;8.50;;;;;;;;;;5069184;28;20064;-61
2022/04/04 02:28:27;;;;;;;16.52;9.30;;;;;;;;;;5067996;28;20044;-61
2022/04/04 02:30:53;;;;;;;17.70;9.18;;;;;;;;;;5070817;28;20044;-60
2022/04/04 02:33:20;;;;;;;14.48;8.95;;;;;;;;;;5065154;28;20040;-60
2022/04/04 02:35:47;;;;;;;14.75;9.18;;;;;;;;;;5070908;28;20041;-60
2022/04/04 02:38:13;;;;;;;16.05;9.38;;;;;;;;;;5072370;28;20046;-63
2022/04/04 02:40:40;;;;;;;15.65;9.10;;;;;;;;;;5066832;28;20040;-60
2022/04/04 02:43:06;;;;;;;14.70;8.82;;;;;;;;;;5067180;28;20084;-61
2022/04/04 02:45:33;;;;;;;14.05;8.70;;;;;;;;;;5062727;28;20041;-60
2022/04/04 02:47:59;;;;;;;15.95;10.10;;;;;;;;;;5065469;28;20044;-60
2022/04/04 02:50:25;;;;;;;17.30;9.93;;;;;;;;;;5068535;28;20040;-63
2022/04/04 02:52:51;;;;;;;16.02;9.43;;;;;;;;;;5066528;28;20115;-60
2022/04/04 02:58:02;;;;;;;13.73;10.32;;;;;;;;;;5067704;28;20045;-60
2022/04/04 03:00:28;;;;;;;16.67;9.25;;;;;;;;;;5068616;28;20045;-60
2022/04/04 03:02:57;;;;;;;17.13;9.85;;;;;;;;;;5070250;28;20042;-60
2022/04/04 03:05:23;;;;;;;15.00;9.55;;;;;;;;;;5070618;28;20487;-61
2022/04/04 03:07:50;;;;;;;17.77;10.40;;;;;;;;;;5068967;28;20106;-61
2022/04/04 03:10:16;;;;;;;13.43;9.40;;;;;;;;;;5067114;28;20106;-60
2022/04/04 03:12:43;;;;;;;16.23;10.27;;;;;;;;;;5068708;28;20420;-60
2022/04/04 03:15:11;;;;;;;14.88;10.07;;;;;;;;;;5068349;28;20398;-60
2022/04/04 03:17:39;;;;;;;15.20;9.80;;;;;;;;;;5067157;28;20119;-61
2022/04/04 03:20:09;;;;;;;13.70;9.80;;;;;;;;;;5069035;28;20032;-60
2022/04/04 03:22:35;;;;;;;17.13;9.77;;;;;;;;;;5066656;28;20430;-60
2022/04/04 03:25:01;;;;;;;16.35;9.93;;;;;;;;;;5068305;28;20044;-60
2022/04/04 03:27:27;;;;;;;13.63;9.60;;;;;;;;;;5069686;28;20115;-61
2022/04/04 03:29:53;;;;;;;12.43;8.77;;;;;;;;;;5073053;28;20111;-61
2022/04/04 03:32:19;;;;;;;14.95;9.52;;;;;;;;;;5068731;28;20120;-61
2022/04/04 03:34:45;;;;;;;15.50;9.55;;;;;;;;;;5064883;28;20183;-61
2022/04/04 03:37:11;;;;;;;14.75;9.05;;;;;;;;;;5069195;28;20558;-60
2022/04/04 03:39:37;;;;;;;14.70;9.63;;;;;;;;;;5067674;28;20047;-61
2022/04/04 03:42:04;;;;;;;12.93;9.57;;;;;;;;;;5067194;28;20107;-61
2022/04/04 03:44:30;;;;;;;14.85;8.95;;;;;;;;;;5068717;28;20052;-60
2022/04/04 03:46:56;;;;;;;12.82;8.85;;;;;;;;;;5066047;28;20044;-60
2022/04/04 03:49:22;;;;;;;14.90;8.40;;;;;;;;;;5067321;28;20041;-60
2022/04/04 03:51:49;;;;;;;18.17;8.70;;;;;;;;;;5068742;28;20228;-61
2022/04/04 03:54:15;;;;;;;16.75;9.50;;;;;;;;;;5065950;28;20114;-61
2022/04/04 03:56:41;;;;;;;13.10;8.55;;;;;;;;;;5057958;28;20044;-60
2022/04/04 03:59:07;;;;;;;14.90;8.25;;;;;;;;;;5059959;28;20127;-61
2022/04/04 04:01:34;;;;;;;16.00;9.35;;;;;;;;;;5065604;28;20089;-60
2022/04/04 04:04:00;;;;;;;13.05;8.75;;;;;;;;;;5060437;28;20037;-60
2022/04/04 04:06:26;;;;;;;15.23;9.07;;;;;;;;;;5060462;28;20063;-61
2022/04/04 04:08:53;;;;;;;15.60;9.05;;;;;;;;;;5066596;28;20040;-61
2022/04/04 04:11:21;;;;;;;12.40;8.98;;;;;;;;;;5063038;28;20403;-60
2022/04/04 04:13:47;;;;;;;13.75;9.10;;;;;;;;;;5062899;28;20052;-61
2022/04/04 04:16:13;;;;;;;12.93;8.90;;;;;;;;;;5061699;28;20044;-60
2022/04/04 04:18:40;;;;;;;15.80;9.05;;;;;;;;;;5062869;28;20075;-61
2022/04/04 04:21:07;;;;;;;13.65;8.43;;;;;;;;;;5063262;28;20511;-60
2022/04/04 04:23:34;;;;;;;13.52;8.90;;;;;;;;;;5061337;28;20090;-60
2022/04/04 04:26:00;;;;;;;13.80;9.45;;;;;;;;;;5067076;28;20761;-61
2022/04/04 04:28:26;;;;;;;12.50;8.80;;;;;;;;;;5068728;28;20119;-60
2022/04/04 04:30:52;;;;;;;13.63;8.57;;;;;;;;;;5068709;28;20032;-60
2022/04/04 04:33:19;;;;;;;13.75;8.63;;;;;;;;;;5067119;28;20491;-60
2022/04/04 04:35:45;;;;;;;14.02;9.98;;;;;;;;;;5070440;28;20051;-61
2022/04/04 04:38:11;;;;;;;13.10;9.43;;;;;;;;;;5068871;28;20098;-61
2022/04/04 04:40:37;;;;;;;13.75;9.23;;;;;;;;;;5067796;28;20052;-61
2022/04/04 04:43:03;;;;;;;15.00;10.07;;;;;;;;;;5068720;28;20476;-61
2022/04/04 04:45:29;;;;;;;16.08;9.95;;;;;;;;;;5072559;28;20478;-60
2022/04/04 04:47:55;;;;;;;16.02;10.05;;;;;;;;;;5070034;28;20040;-61
2022/04/04 04:50:22;;;;;;;12.00;9.40;;;;;;;;;;5071224;28;20029;-61
2022/04/04 04:52:49;;;;;;;13.95;9.38;;;;;;;;;;5070708;28;20075;-60
2022/04/04 04:55:18;;;;;;;19.50;9.57;;;;;;;;;;5071574;28;20090;-61
2022/04/04 04:57:44;;;;;;;17.80;9.98;;;;;;;;;;5073403;28;20094;-61
2022/04/04 05:00:11;;;;;;;15.20;9.82;;;;;;;;;;5067244;28;20136;-60
2022/04/04 05:02:37;;;;;;;16.48;10.05;;;;;;;;;;5068197;28;20176;-61
2022/04/04 05:05:04;;;;;;;13.77;9.98;;;;;;;;;;5069802;28;20036;-61
2022/04/04 05:07:31;;;;;;;14.05;9.63;;;;;;;;;;5071428;28;20063;-61
2022/04/04 05:09:57;;;;;;;18.05;10.48;;;;;;;;;;5065960;28;20032;-61
2022/04/04 05:12:23;;;;;;;14.27;9.52;;;;;;;;;;5065488;28;20049;-60
2022/04/04 05:14:49;;;;;;;15.43;10.45;;;;;;;;;;5065360;28;20046;-61
2022/04/04 05:17:15;;;;;;;17.42;10.00;;;;;;;;;;5071697;28;20040;-61
2022/04/04 05:19:42;;;;;;;14.65;9.85;;;;;;;;;;5071040;28;20444;-61
2022/04/04 05:22:08;;;;;;;13.85;10.07;;;;;;;;;;5073007;28;20040;-61
2022/04/04 05:24:35;;;;;;;14.20;9.32;;;;;;;;;;5071675;28;20064;-60
2022/04/04 05:27:01;;;;;;;13.45;9.93;;;;;;;;;;5070467;28;20083;-61
2022/04/04 05:29:27;;;;;;;14.00;8.93;;;;;;;;;;5072804;28;20040;-60
2022/04/04 05:31:54;;;;;;;13.27;9.32;;;;;;;;;;5070576;28;20049;-61
2022/04/04 05:34:20;;;;;;;12.55;8.68;;;;;;;;;;5069403;28;20483;-61
2022/04/04 05:36:47;;;;;;;11.55;8.82;;;;;;;;;;5065521;28;20048;-61
2022/04/04 05:39:13;;;;;;;13.90;8.88;;;;;;;;;;5074286;28;20036;-60
2022/04/04 05:41:40;;;;;;;12.02;8.80;;;;;;;;;;5071853;28;20089;-60
2022/04/04 05:44:06;;;;;;;14.10;8.80;;;;;;;;;;5072466;28;20094;-60
2022/04/04 05:46:33;;;;;;;14.23;8.68;;;;;;;;;;5070208;28;20048;-61
2022/04/04 05:49:00;;;;;;;15.02;9.05;;;;;;;;;;5071538;28;20127;-60
2022/04/04 05:51:27;;;;;;;17.10;9.13;;;;;;;;;;5072232;28;20074;-60
2022/04/04 05:53:53;;;;;;;14.90;8.35;;;;;;;;;;5070665;28;20055;-61
2022/04/04 05:56:21;;;;;;;11.75;7.95;;;;;;;;;;5071933;28;20046;-60
2022/04/04 05:58:47;;;;;;;13.18;8.18;;;;;;;;;;5071027;28;20049;-61
2022/04/04 06:01:13;;;;;;;11.80;7.88;;;;;;;;;;5071731;28;20040;-61
2022/04/04 06:03:40;;;;;;;15.82;9.07;;;;;;;;;;5071252;28;20047;-60
2022/04/04 06:06:06;;;;;;;13.35;8.15;;;;;;;;;;5071936;28;20387;-61
2022/04/04 06:18:53;;;;;;;10.80;8.18;;;;;;;;;;5104756;27;1941795;-61
2022/04/04 06:21:19;;;;;;;12.77;7.82;;;;;;;;;;5149414;27;20043;-61
2022/04/04 06:23:45;;;;;;;14.98;8.15;;;;;;;;;;5148972;27;20046;-61
2022/04/04 06:26:12;;;;;;;15.38;9.30;;;;;;;;;;5127029;27;20039;-62
2022/04/04 06:28:38;;;;;;;13.70;8.63;;;;;;;;;;5146215;27;20031;-62
2022/04/04 06:31:04;;;;;;;13.50;8.52;;;;;;;;;;5149019;27;20088;-62
2022/04/04 06:33:30;;;;;;;13.75;9.00;;;;;;;;;;5148701;27;20043;-61
2022/04/04 06:35:56;;;;;;;15.07;9.32;;;;;;;;;;5148991;27;20031;-62
2022/04/04 06:38:22;;;;;;;15.32;9.50;;;;;;;;;;5146948;27;20039;-61
2022/04/04 06:40:49;;;;;;;12.38;8.98;;;;;;;;;;5148607;27;20058;-61
2022/04/04 06:43:17;;;;;;;16.40;9.52;;;;;;;;;;5149615;27;20035;-62
2022/04/04 06:45:44;;;;;;;12.02;8.70;;;;;;;;;;5149015;27;20122;-61
2022/04/04 06:48:10;;;;;;;19.20;10.43;;;;;;;;;;5147837;27;20409;-61
2022/04/04 06:50:36;;;;;;;14.43;9.13;;;;;;;;;;5149189;27;20500;-62
2022/04/04 06:53:02;;;;;;;14.57;9.52;;;;;;;;;;5150467;27;20039;-61
2022/04/04 06:55:31;;;;;;;14.77;9.48;;;;;;;;;;5147550;27;20039;-62
2022/04/04 06:57:57;;;;;;;14.82;9.20;;;;;;;;;;5146938;27;20050;-61
2022/04/04 07:00:23;;;;;;;17.08;9.43;;;;;;;;;;5130690;27;20123;-62
2022/04/04 07:02:50;;;;;;;16.52;9.77;;;;;;;;;;5148140;27;20137;-61
2022/04/04 07:05:16;;;;;;;14.35;9.48;;;;;;;;;;5148700;27;20118;-61
2022/04/04 07:07:42;;;;;;;18.15;9.35;;;;;;;;;;5148624;27;20583;-61
2022/04/04 07:10:11;;;;;;;14.70;9.90;;;;;;;;;;5148339;27;20046;-62
2022/04/04 07:12:43;;;;;;;15.27;10.50;;;;;;;;;;5147814;27;20489;-61
2022/04/04 07:15:12;;;;;;;14.70;8.75;;;;;;;;;;5148148;27;20085;-62
2022/04/04 07:17:39;;;;;;;14.93;9.70;;;;;;;;;;5148079;27;20119;-61
2022/04/04 07:20:06;;;;;;;15.93;11.07;;;;;;;;;;5147895;27;20037;-62
2022/04/04 07:22:42;;;;;;;18.38;11.13;;;;;;;;;;5148358;27;20030;-62
2022/04/04 07:25:09;;;;;;;14.63;10.65;;;;;;;;;;5144632;27;20114;-61
2022/04/04 07:27:41;;;;;;;15.15;10.23;;;;;;;;;;5148336;27;20038;-61
2022/04/04 07:30:08;;;;;;;16.63;10.80;;;;;;;;;;5134342;27;20476;-61
2022/04/04 07:32:35;;;;;;;15.10;10.68;;;;;;;;;;5134236;27;20061;-61
2022/04/04 07:35:01;;;;;;;21.42;11.88;;;;;;;;;;5114934;27;20043;-61
2022/04/04 07:37:27;;;;;;;14.48;11.25;;;;;;;;;;5115384;27;20039;-62
2022/04/04 07:39:53;;;;;;;15.48;10.00;;;;;;;;;;5134162;27;20412;-61
2022/04/04 07:42:19;;;;;;;18.00;13.23;;;;;;;;;;5133852;27;20041;-61
2022/04/04 07:44:45;;;;;;;15.20;12.43;;;;;;;;;;5134086;27;20547;-62
2022/04/04 07:47:11;;;;;;;18.20;12.75;;;;;;;;;;5133446;27;20039;-62
2022/04/04 07:49:37;;;;;;;19.83;13.40;;;;;;;;;;5126515;27;20039;-61
2022/04/04 07:52:03;;;;;;;19.50;14.07;;;;;;;;;;5130579;27;20042;-62
2022/04/04 07:54:29;;;;;;;18.58;12.77;;;;;;;;;;5131269;27;20035;-61
2022/04/04 07:56:56;;;;;;;24.80;13.35;;;;;;;;;;5130051;27;20039;-62
2022/04/04 07:59:22;;;;;;;17.88;13.43;;;;;;;;;;5127369;27;20485;-62
2022/04/04 08:01:48;;;;;;;19.70;14.10;;;;;;;;;;5129898;27;20039;-62
2022/04/04 08:04:14;;;;;;;17.35;12.07;;;;;;;;;;5132891;27;20393;-62
2022/04/04 08:06:40;;;;;;;22.33;13.57;;;;;;;;;;5130793;27;20031;-61
2022/04/04 08:09:07;;;;;;;18.17;12.25;;;;;;;;;;5128469;27;20143;-62
2022/04/04 08:13:26;;;;;;;14.13;11.07;;;;;;;;;;5106898;27;20115;-61
2022/04/04 08:15:54;;;;;;;15.38;11.43;;;;;;;;;;5105902;28;20071;-62
2022/04/04 08:18:20;;;;;;;18.73;12.85;;;;;;;;;;5106450;28;20044;-62
2022/04/04 08:20:46;;;;;;;16.80;11.80;;;;;;;;;;5104906;28;20494;-62
2022/04/04 08:23:12;;;;;;;16.40;10.88;;;;;;;;;;5104924;28;20047;-62
